sensor_id;sensor_type;location;lat;lon;timestamp;P1;durP1;ratioP1;P2;durP2;ratioP2
29452;SDS011;16424;50.956;5.320;2023-10-09T00:02:10;10.25;;;5.72;;
29452;SDS011;16424;50.956;5.320;2023-10-09T00:04:37;13.07;;;6.80;;
29452;SDS011;16424;50.956;5.320;2023-10-09T00:07:06;9.75;;;5.95;;
29452;SDS011;16424;50.956;5.320;2023-10-09T00:09:36;11.40;;;5.43;;
29452;SDS011;16424;50.956;5.320;2023-10-09T00:12:12;11.43;;;5.32;;
29452;SDS011;16424;50.956;5.320;2023-10-09T00:14:41;15.88;;;6.97;;
29452;SDS011;16424;50.956;5.320;2023-10-09T00:17:13;11.40;;;6.65;;
29452;SDS011;16424;50.956;5.320;2023-10-09T00:19:39;13.95;;;5.85;;
29452;SDS011;16424;50.956;5.320;2023-10-09T00:22:07;13.55;;;6.80;;
29452;SDS011;16424;50.956;5.320;2023-10-09T00:24:36;12.80;;;6.03;;
29452;SDS011;16424;50.956;5.320;2023-10-09T00:27:10;11.45;;;6.10;;
29452;SDS011;16424;50.956;5.320;2023-10-09T00:29:44;10.43;;;5.30;;
29452;SDS011;16424;50.956;5.320;2023-10-09T00:32:14;11.43;;;6.32;;
29452;SDS011;16424;50.956;5.320;2023-10-09T00:34:54;14.45;;;6.40;;
29452;SDS011;16424;50.956;5.320;2023-10-09T00:37:23;13.73;;;6.32;;
29452;SDS011;16424;50.956;5.320;2023-10-09T00:39:51;9.55;;;5.35;;
29452;SDS011;16424;50.956;5.320;2023-10-09T00:42:23;10.85;;;6.18;;
29452;SDS011;16424;50.956;5.320;2023-10-09T00:47:29;8.48;;;5.50;;
29452;SDS011;16424;50.956;5.320;2023-10-09T00:50:06;16.58;;;5.40;;
29452;SDS011;16424;50.956;5.320;2023-10-09T00:52:50;8.48;;;5.22;;
29452;SDS011;16424;50.956;5.320;2023-10-09T00:55:26;11.70;;;5.88;;
29452;SDS011;16424;50.956;5.320;2023-10-09T00:58:02;13.10;;;6.47;;
29452;SDS011;16424;50.956;5.320;2023-10-09T01:00:34;10.75;;;5.60;;
29452;SDS011;16424;50.956;5.320;2023-10-09T01:03:09;10.27;;;5.47;;
29452;SDS011;16424;50.956;5.320;2023-10-09T01:05:49;13.63;;;6.43;;
29452;SDS011;16424;50.956;5.320;2023-10-09T01:08:25;16.02;;;7.63;;
29452;SDS011;16424;50.956;5.320;2023-10-09T01:11:12;14.00;;;6.10;;
29452;SDS011;16424;50.956;5.320;2023-10-09T01:13:47;10.65;;;5.70;;
29452;SDS011;16424;50.956;5.320;2023-10-09T01:16:13;11.38;;;6.05;;
29452;SDS011;16424;50.956;5.320;2023-10-09T01:18:43;9.05;;;5.30;;
29452;SDS011;16424;50.956;5.320;2023-10-09T01:21:11;10.52;;;5.88;;
29452;SDS011;16424;50.956;5.320;2023-10-09T01:23:41;14.40;;;6.28;;
29452;SDS011;16424;50.956;5.320;2023-10-09T01:29:02;13.30;;;6.28;;
29452;SDS011;16424;50.956;5.320;2023-10-09T01:31:28;13.45;;;7.15;;
29452;SDS011;16424;50.956;5.320;2023-10-09T01:34:02;11.27;;;6.38;;
29452;SDS011;16424;50.956;5.320;2023-10-09T01:36:34;12.50;;;6.28;;
29452;SDS011;16424;50.956;5.320;2023-10-09T01:39:05;12.77;;;5.93;;
29452;SDS011;16424;50.956;5.320;2023-10-09T01:41:52;12.93;;;6.35;;
29452;SDS011;16424;50.956;5.320;2023-10-09T01:44:26;14.07;;;5.82;;
29452;SDS011;16424;50.956;5.320;2023-10-09T01:46:55;15.88;;;7.40;;
29452;SDS011;16424;50.956;5.320;2023-10-09T01:49:23;15.32;;;6.72;;
29452;SDS011;16424;50.956;5.320;2023-10-09T01:51:56;11.60;;;6.22;;
29452;SDS011;16424;50.956;5.320;2023-10-09T01:54:29;12.98;;;7.07;;
29452;SDS011;16424;50.956;5.320;2023-10-09T01:57:04;12.60;;;6.45;;
29452;SDS011;16424;50.956;5.320;2023-10-09T01:59:31;11.30;;;6.90;;
29452;SDS011;16424;50.956;5.320;2023-10-09T02:01:58;12.55;;;6.10;;
29452;SDS011;16424;50.956;5.320;2023-10-09T02:04:25;12.88;;;6.47;;
29452;SDS011;16424;50.956;5.320;2023-10-09T02:06:51;11.52;;;6.00;;
29452;SDS011;16424;50.956;5.320;2023-10-09T02:09:18;12.05;;;6.15;;
29452;SDS011;16424;50.956;5.320;2023-10-09T02:11:47;17.33;;;6.35;;
29452;SDS011;16424;50.956;5.320;2023-10-09T02:14:12;11.20;;;6.20;;
29452;SDS011;16424;50.956;5.320;2023-10-09T02:16:48;14.90;;;7.60;;
29452;SDS011;16424;50.956;5.320;2023-10-09T02:19:49;9.85;;;5.93;;
29452;SDS011;16424;50.956;5.320;2023-10-09T02:22:15;10.93;;;7.07;;
29452;SDS011;16424;50.956;5.320;2023-10-09T02:24:42;14.68;;;7.05;;
29452;SDS011;16424;50.956;5.320;2023-10-09T02:27:16;12.18;;;6.00;;
29452;SDS011;16424;50.956;5.320;2023-10-09T02:30:05;13.82;;;6.78;;
29452;SDS011;16424;50.956;5.320;2023-10-09T02:32:42;13.10;;;6.15;;
29452;SDS011;16424;50.956;5.320;2023-10-09T02:35:09;12.93;;;6.57;;
29452;SDS011;16424;50.956;5.320;2023-10-09T02:37:57;14.32;;;7.05;;
29452;SDS011;16424;50.956;5.320;2023-10-09T02:40:26;15.00;;;7.15;;
29452;SDS011;16424;50.956;5.320;2023-10-09T02:42:59;9.93;;;6.55;;
29452;SDS011;16424;50.956;5.320;2023-10-09T02:45:24;12.93;;;6.03;;
29452;SDS011;16424;50.956;5.320;2023-10-09T02:47:55;11.98;;;6.13;;
29452;SDS011;16424;50.956;5.320;2023-10-09T02:50:21;10.40;;;5.90;;
29452;SDS011;16424;50.956;5.320;2023-10-09T02:52:48;11.68;;;6.80;;
29452;SDS011;16424;50.956;5.320;2023-10-09T02:55:18;10.15;;;6.05;;
29452;SDS011;16424;50.956;5.320;2023-10-09T02:57:54;11.83;;;6.27;;
29452;SDS011;16424;50.956;5.320;2023-10-09T03:00:40;9.68;;;5.70;;
29452;SDS011;16424;50.956;5.320;2023-10-09T03:03:09;12.80;;;6.40;;
29452;SDS011;16424;50.956;5.320;2023-10-09T03:05:35;15.02;;;6.95;;
29452;SDS011;16424;50.956;5.320;2023-10-09T03:08:03;10.55;;;6.25;;
29452;SDS011;16424;50.956;5.320;2023-10-09T03:10:29;11.20;;;5.75;;
29452;SDS011;16424;50.956;5.320;2023-10-09T03:12:55;10.90;;;6.50;;
29452;SDS011;16424;50.956;5.320;2023-10-09T03:15:21;11.77;;;6.40;;
29452;SDS011;16424;50.956;5.320;2023-10-09T03:17:47;22.60;;;6.85;;
29452;SDS011;16424;50.956;5.320;2023-10-09T03:20:13;14.23;;;7.28;;
29452;SDS011;16424;50.956;5.320;2023-10-09T03:22:42;10.73;;;6.13;;
29452;SDS011;16424;50.956;5.320;2023-10-09T03:25:13;12.52;;;7.03;;
29452;SDS011;16424;50.956;5.320;2023-10-09T03:27:43;13.15;;;6.15;;
29452;SDS011;16424;50.956;5.320;2023-10-09T03:30:13;12.23;;;6.82;;
29452;SDS011;16424;50.956;5.320;2023-10-09T03:32:47;16.30;;;7.53;;
29452;SDS011;16424;50.956;5.320;2023-10-09T03:35:16;12.13;;;6.80;;
29452;SDS011;16424;50.956;5.320;2023-10-09T03:37:49;18.98;;;6.72;;
29452;SDS011;16424;50.956;5.320;2023-10-09T03:40:16;13.60;;;7.45;;
29452;SDS011;16424;50.956;5.320;2023-10-09T03:42:43;12.57;;;6.38;;
29452;SDS011;16424;50.956;5.320;2023-10-09T03:45:10;10.88;;;6.05;;
29452;SDS011;16424;50.956;5.320;2023-10-09T03:47:38;13.18;;;6.70;;
29452;SDS011;16424;50.956;5.320;2023-10-09T03:50:08;12.55;;;6.97;;
29452;SDS011;16424;50.956;5.320;2023-10-09T03:52:48;12.68;;;6.35;;
29452;SDS011;16424;50.956;5.320;2023-10-09T03:55:15;12.13;;;6.72;;
29452;SDS011;16424;50.956;5.320;2023-10-09T03:57:40;19.13;;;8.13;;
29452;SDS011;16424;50.956;5.320;2023-10-09T04:00:10;15.07;;;7.18;;
29452;SDS011;16424;50.956;5.320;2023-10-09T04:02:52;10.52;;;6.63;;
29452;SDS011;16424;50.956;5.320;2023-10-09T04:05:20;14.45;;;7.88;;
29452;SDS011;16424;50.956;5.320;2023-10-09T04:07:45;16.45;;;7.25;;
29452;SDS011;16424;50.956;5.320;2023-10-09T04:10:13;12.98;;;6.95;;
29452;SDS011;16424;50.956;5.320;2023-10-09T04:13:07;15.00;;;6.97;;
29452;SDS011;16424;50.956;5.320;2023-10-09T04:15:36;13.80;;;6.75;;
29452;SDS011;16424;50.956;5.320;2023-10-09T04:18:02;14.02;;;6.70;;
29452;SDS011;16424;50.956;5.320;2023-10-09T04:20:30;13.38;;;6.70;;
29452;SDS011;16424;50.956;5.320;2023-10-09T04:23:15;13.57;;;6.55;;
29452;SDS011;16424;50.956;5.320;2023-10-09T04:25:41;15.27;;;7.72;;
29452;SDS011;16424;50.956;5.320;2023-10-09T04:28:07;12.20;;;6.63;;
29452;SDS011;16424;50.956;5.320;2023-10-09T04:30:35;17.50;;;6.70;;
29452;SDS011;16424;50.956;5.320;2023-10-09T04:33:06;13.65;;;6.70;;
29452;SDS011;16424;50.956;5.320;2023-10-09T04:35:50;13.15;;;7.18;;
29452;SDS011;16424;50.956;5.320;2023-10-09T04:38:35;13.73;;;6.18;;
29452;SDS011;16424;50.956;5.320;2023-10-09T04:41:04;16.10;;;7.50;;
29452;SDS011;16424;50.956;5.320;2023-10-09T04:43:30;17.60;;;6.47;;
29452;SDS011;16424;50.956;5.320;2023-10-09T04:45:58;15.05;;;7.13;;
29452;SDS011;16424;50.956;5.320;2023-10-09T04:48:48;18.08;;;6.82;;
29452;SDS011;16424;50.956;5.320;2023-10-09T04:51:17;14.00;;;7.28;;
29452;SDS011;16424;50.956;5.320;2023-10-09T04:53:47;13.35;;;7.07;;
29452;SDS011;16424;50.956;5.320;2023-10-09T04:56:25;15.70;;;6.78;;
29452;SDS011;16424;50.956;5.320;2023-10-09T04:58:56;11.48;;;6.65;;
29452;SDS011;16424;50.956;5.320;2023-10-09T05:01:28;19.98;;;6.38;;
29452;SDS011;16424;50.956;5.320;2023-10-09T05:04:01;13.48;;;7.13;;
29452;SDS011;16424;50.956;5.320;2023-10-09T05:06:29;11.40;;;6.38;;
29452;SDS011;16424;50.956;5.320;2023-10-09T05:09:07;12.68;;;6.22;;
29452;SDS011;16424;50.956;5.320;2023-10-09T05:11:34;12.75;;;6.68;;
29452;SDS011;16424;50.956;5.320;2023-10-09T05:14:18;16.88;;;7.05;;
29452;SDS011;16424;50.956;5.320;2023-10-09T05:17:03;12.63;;;6.88;;
29452;SDS011;16424;50.956;5.320;2023-10-09T05:19:34;11.75;;;6.15;;
29452;SDS011;16424;50.956;5.320;2023-10-09T05:22:20;11.85;;;7.03;;
29452;SDS011;16424;50.956;5.320;2023-10-09T05:24:55;14.25;;;7.55;;
29452;SDS011;16424;50.956;5.320;2023-10-09T05:27:22;12.88;;;7.15;;
29452;SDS011;16424;50.956;5.320;2023-10-09T05:30:06;15.87;;;8.07;;
29452;SDS011;16424;50.956;5.320;2023-10-09T05:32:59;14.43;;;7.70;;
29452;SDS011;16424;50.956;5.320;2023-10-09T05:35:44;15.10;;;7.45;;
29452;SDS011;16424;50.956;5.320;2023-10-09T05:38:30;19.08;;;7.55;;
29452;SDS011;16424;50.956;5.320;2023-10-09T05:41:00;15.18;;;6.72;;
29452;SDS011;16424;50.956;5.320;2023-10-09T05:43:45;18.13;;;7.72;;
29452;SDS011;16424;50.956;5.320;2023-10-09T05:46:30;15.27;;;7.47;;
29452;SDS011;16424;50.956;5.320;2023-10-09T05:49:00;16.42;;;7.25;;
29452;SDS011;16424;50.956;5.320;2023-10-09T05:51:34;12.75;;;6.90;;
29452;SDS011;16424;50.956;5.320;2023-10-09T05:54:07;12.48;;;6.38;;
29452;SDS011;16424;50.956;5.320;2023-10-09T05:56:51;14.27;;;7.90;;
29452;SDS011;16424;50.956;5.320;2023-10-09T05:59:55;11.00;;;6.90;;
29452;SDS011;16424;50.956;5.320;2023-10-09T06:02:39;13.48;;;6.38;;
29452;SDS011;16424;50.956;5.320;2023-10-09T06:05:23;12.85;;;7.22;;
29452;SDS011;16424;50.956;5.320;2023-10-09T06:08:07;13.17;;;7.83;;
29452;SDS011;16424;50.956;5.320;2023-10-09T06:10:38;12.20;;;6.63;;
29452;SDS011;16424;50.956;5.320;2023-10-09T06:13:07;15.00;;;7.55;;
29452;SDS011;16424;50.956;5.320;2023-10-09T06:15:51;14.85;;;7.40;;
29452;SDS011;16424;50.956;5.320;2023-10-09T06:18:34;16.38;;;7.72;;
29452;SDS011;16424;50.956;5.320;2023-10-09T06:20:59;14.15;;;6.70;;
29452;SDS011;16424;50.956;5.320;2023-10-09T06:23:31;13.40;;;6.85;;
29452;SDS011;16424;50.956;5.320;2023-10-09T06:26:15;15.50;;;7.55;;
29452;SDS011;16424;50.956;5.320;2023-10-09T06:28:51;9.82;;;6.22;;
29452;SDS011;16424;50.956;5.320;2023-10-09T06:31:36;16.40;;;7.70;;
29452;SDS011;16424;50.956;5.320;2023-10-09T06:34:20;14.15;;;6.57;;
29452;SDS011;16424;50.956;5.320;2023-10-09T06:36:57;14.50;;;6.60;;
29452;SDS011;16424;50.956;5.320;2023-10-09T06:39:43;14.77;;;7.28;;
29452;SDS011;16424;50.956;5.320;2023-10-09T06:42:21;12.10;;;7.53;;
29452;SDS011;16424;50.956;5.320;2023-10-09T06:45:02;22.80;;;8.30;;
29452;SDS011;16424;50.956;5.320;2023-10-09T06:47:33;15.60;;;6.47;;
29452;SDS011;16424;50.956;5.320;2023-10-09T06:50:15;12.85;;;6.90;;
29452;SDS011;16424;50.956;5.320;2023-10-09T06:52:49;12.32;;;6.82;;
29452;SDS011;16424;50.956;5.320;2023-10-09T06:55:22;13.45;;;7.20;;
29452;SDS011;16424;50.956;5.320;2023-10-09T06:58:02;13.77;;;7.45;;
29452;SDS011;16424;50.956;5.320;2023-10-09T07:00:41;15.25;;;6.80;;
29452;SDS011;16424;50.956;5.320;2023-10-09T07:03:29;12.10;;;6.97;;
29452;SDS011;16424;50.956;5.320;2023-10-09T07:06:07;11.43;;;7.60;;
29452;SDS011;16424;50.956;5.320;2023-10-09T07:08:55;15.18;;;7.80;;
29452;SDS011;16424;50.956;5.320;2023-10-09T07:14:22;15.30;;;7.95;;
29452;SDS011;16424;50.956;5.320;2023-10-09T07:17:07;16.02;;;7.50;;
29452;SDS011;16424;50.956;5.320;2023-10-09T07:22:11;13.48;;;7.47;;
29452;SDS011;16424;50.956;5.320;2023-10-09T07:24:46;13.10;;;7.57;;
29452;SDS011;16424;50.956;5.320;2023-10-09T07:27:22;17.48;;;8.30;;
29452;SDS011;16424;50.956;5.320;2023-10-09T07:30:08;12.90;;;7.22;;
29452;SDS011;16424;50.956;5.320;2023-10-09T07:35:34;13.90;;;7.82;;
29452;SDS011;16424;50.956;5.320;2023-10-09T07:38:21;11.77;;;7.70;;
29452;SDS011;16424;50.956;5.320;2023-10-09T07:40:53;15.73;;;8.18;;
29452;SDS011;16424;50.956;5.320;2023-10-09T07:43:45;15.32;;;7.78;;
29452;SDS011;16424;50.956;5.320;2023-10-09T07:46:11;17.30;;;7.32;;
29452;SDS011;16424;50.956;5.320;2023-10-09T07:48:57;22.58;;;8.45;;
29452;SDS011;16424;50.956;5.320;2023-10-09T07:51:25;12.20;;;6.80;;
29452;SDS011;16424;50.956;5.320;2023-10-09T07:53:58;16.05;;;8.95;;
29452;SDS011;16424;50.956;5.320;2023-10-09T07:56:48;15.90;;;7.35;;
29452;SDS011;16424;50.956;5.320;2023-10-09T07:59:18;12.10;;;7.28;;
29452;SDS011;16424;50.956;5.320;2023-10-09T08:01:45;17.67;;;7.90;;
29452;SDS011;16424;50.956;5.320;2023-10-09T08:04:20;15.32;;;8.07;;
29452;SDS011;16424;50.956;5.320;2023-10-09T08:07:13;16.50;;;7.10;;
29452;SDS011;16424;50.956;5.320;2023-10-09T08:09:54;12.82;;;7.00;;
29452;SDS011;16424;50.956;5.320;2023-10-09T08:12:38;13.38;;;7.05;;
29452;SDS011;16424;50.956;5.320;2023-10-09T08:15:23;13.10;;;7.60;;
29452;SDS011;16424;50.956;5.320;2023-10-09T08:18:22;18.35;;;7.72;;
29452;SDS011;16424;50.956;5.320;2023-10-09T08:20:54;14.63;;;7.10;;
29452;SDS011;16424;50.956;5.320;2023-10-09T08:23:23;17.92;;;8.00;;
29452;SDS011;16424;50.956;5.320;2023-10-09T08:26:00;13.50;;;7.00;;
29452;SDS011;16424;50.956;5.320;2023-10-09T08:28:39;14.17;;;8.10;;
29452;SDS011;16424;50.956;5.320;2023-10-09T08:31:08;18.17;;;8.88;;
29452;SDS011;16424;50.956;5.320;2023-10-09T08:33:59;15.70;;;7.80;;
29452;SDS011;16424;50.956;5.320;2023-10-09T08:36:26;13.48;;;7.18;;
29452;SDS011;16424;50.956;5.320;2023-10-09T08:38:54;19.40;;;7.55;;
29452;SDS011;16424;50.956;5.320;2023-10-09T08:41:24;15.13;;;8.30;;
29452;SDS011;16424;50.956;5.320;2023-10-09T08:43:55;16.63;;;7.97;;
29452;SDS011;16424;50.956;5.320;2023-10-09T08:46:25;15.40;;;7.20;;
29452;SDS011;16424;50.956;5.320;2023-10-09T08:48:55;17.05;;;7.47;;
29452;SDS011;16424;50.956;5.320;2023-10-09T08:51:23;16.58;;;7.22;;
29452;SDS011;16424;50.956;5.320;2023-10-09T08:53:50;15.88;;;7.60;;
29452;SDS011;16424;50.956;5.320;2023-10-09T08:56:17;14.45;;;7.25;;
29452;SDS011;16424;50.956;5.320;2023-10-09T08:58:58;16.73;;;7.75;;
29452;SDS011;16424;50.956;5.320;2023-10-09T09:01:24;14.05;;;6.95;;
29452;SDS011;16424;50.956;5.320;2023-10-09T09:03:50;14.30;;;7.18;;
29452;SDS011;16424;50.956;5.320;2023-10-09T09:06:20;14.27;;;7.03;;
29452;SDS011;16424;50.956;5.320;2023-10-09T09:08:49;16.38;;;7.75;;
29452;SDS011;16424;50.956;5.320;2023-10-09T09:11:20;14.48;;;7.38;;
29452;SDS011;16424;50.956;5.320;2023-10-09T09:16:28;15.30;;;7.63;;
29452;SDS011;16424;50.956;5.320;2023-10-09T09:18:58;12.00;;;7.40;;
29452;SDS011;16424;50.956;5.320;2023-10-09T09:21:26;15.35;;;7.78;;
29452;SDS011;16424;50.956;5.320;2023-10-09T09:23:53;15.43;;;7.93;;
29452;SDS011;16424;50.956;5.320;2023-10-09T09:26:35;17.20;;;7.35;;
29452;SDS011;16424;50.956;5.320;2023-10-09T09:29:02;14.07;;;6.65;;
29452;SDS011;16424;50.956;5.320;2023-10-09T09:31:31;13.43;;;6.70;;
29452;SDS011;16424;50.956;5.320;2023-10-09T09:34:07;12.30;;;6.57;;
29452;SDS011;16424;50.956;5.320;2023-10-09T09:39:30;14.07;;;7.32;;
29452;SDS011;16424;50.956;5.320;2023-10-09T09:41:59;14.52;;;6.22;;
29452;SDS011;16424;50.956;5.320;2023-10-09T09:44:39;11.63;;;6.55;;
29452;SDS011;16424;50.956;5.320;2023-10-09T09:47:13;10.40;;;6.53;;
29452;SDS011;16424;50.956;5.320;2023-10-09T09:49:48;14.18;;;7.18;;
29452;SDS011;16424;50.956;5.320;2023-10-09T09:52:17;17.55;;;6.97;;
29452;SDS011;16424;50.956;5.320;2023-10-09T09:54:44;14.43;;;7.53;;
29452;SDS011;16424;50.956;5.320;2023-10-09T09:57:09;11.05;;;6.63;;
29452;SDS011;16424;50.956;5.320;2023-10-09T09:59:39;14.43;;;6.80;;
29452;SDS011;16424;50.956;5.320;2023-10-09T10:02:38;11.18;;;6.25;;
29452;SDS011;16424;50.956;5.320;2023-10-09T10:05:06;11.60;;;6.18;;
29452;SDS011;16424;50.956;5.320;2023-10-09T10:07:37;13.07;;;6.95;;
29452;SDS011;16424;50.956;5.320;2023-10-09T10:10:47;14.88;;;6.55;;
29452;SDS011;16424;50.956;5.320;2023-10-09T10:13:18;14.27;;;6.68;;
29452;SDS011;16424;50.956;5.320;2023-10-09T10:16:07;12.05;;;6.15;;
29452;SDS011;16424;50.956;5.320;2023-10-09T10:21:43;12.85;;;7.28;;
29452;SDS011;16424;50.956;5.320;2023-10-09T10:27:17;14.30;;;7.65;;
29452;SDS011;16424;50.956;5.320;2023-10-09T10:35:16;13.30;;;7.53;;
29452;SDS011;16424;50.956;5.320;2023-10-09T10:37:45;13.80;;;6.97;;
29452;SDS011;16424;50.956;5.320;2023-10-09T10:40:28;11.60;;;6.15;;
29452;SDS011;16424;50.956;5.320;2023-10-09T10:43:17;12.90;;;7.15;;
29452;SDS011;16424;50.956;5.320;2023-10-09T10:46:05;12.63;;;6.88;;
29452;SDS011;16424;50.956;5.320;2023-10-09T10:48:52;11.88;;;6.50;;
29452;SDS011;16424;50.956;5.320;2023-10-09T10:51:34;12.30;;;6.95;;
29452;SDS011;16424;50.956;5.320;2023-10-09T10:54:03;11.82;;;7.32;;
29452;SDS011;16424;50.956;5.320;2023-10-09T10:56:49;10.85;;;5.85;;
29452;SDS011;16424;50.956;5.320;2023-10-09T10:59:15;10.07;;;6.47;;
29452;SDS011;16424;50.956;5.320;2023-10-09T11:01:48;16.33;;;6.10;;
29452;SDS011;16424;50.956;5.320;2023-10-09T11:04:20;11.75;;;6.05;;
29452;SDS011;16424;50.956;5.320;2023-10-09T11:07:03;12.52;;;6.43;;
29452;SDS011;16424;50.956;5.320;2023-10-09T11:09:50;14.55;;;6.18;;
29452;SDS011;16424;50.956;5.320;2023-10-09T11:15:29;6.90;;;4.50;;
29452;SDS011;16424;50.956;5.320;2023-10-09T11:18:09;19.77;;;5.97;;
29452;SDS011;16424;50.956;5.320;2023-10-09T11:20:44;16.15;;;5.40;;
29452;SDS011;16424;50.956;5.320;2023-10-09T11:23:30;10.05;;;4.75;;
29452;SDS011;16424;50.956;5.320;2023-10-09T11:26:00;10.07;;;5.13;;
29452;SDS011;16424;50.956;5.320;2023-10-09T11:28:46;9.30;;;4.40;;
29452;SDS011;16424;50.956;5.320;2023-10-09T11:34:24;11.95;;;4.85;;
29452;SDS011;16424;50.956;5.320;2023-10-09T11:39:35;11.32;;;5.07;;
29452;SDS011;16424;50.956;5.320;2023-10-09T11:42:05;11.90;;;5.10;;
29452;SDS011;16424;50.956;5.320;2023-10-09T11:44:36;9.65;;;5.07;;
29452;SDS011;16424;50.956;5.320;2023-10-09T11:47:04;16.13;;;5.90;;
29452;SDS011;16424;50.956;5.320;2023-10-09T11:49:52;12.07;;;4.72;;
29452;SDS011;16424;50.956;5.320;2023-10-09T11:52:54;10.05;;;5.28;;
29452;SDS011;16424;50.956;5.320;2023-10-09T11:55:39;9.98;;;5.90;;
29452;SDS011;16424;50.956;5.320;2023-10-09T11:58:05;11.13;;;4.97;;
29452;SDS011;16424;50.956;5.320;2023-10-09T12:00:32;9.45;;;4.60;;
29452;SDS011;16424;50.956;5.320;2023-10-09T12:03:09;11.90;;;5.28;;
29452;SDS011;16424;50.956;5.320;2023-10-09T12:05:35;13.30;;;5.72;;
29452;SDS011;16424;50.956;5.320;2023-10-09T12:08:02;10.27;;;4.80;;
29452;SDS011;16424;50.956;5.320;2023-10-09T12:10:33;8.52;;;4.68;;
29452;SDS011;16424;50.956;5.320;2023-10-09T12:12:59;9.40;;;5.18;;
29452;SDS011;16424;50.956;5.320;2023-10-09T12:15:28;8.82;;;4.50;;
29452;SDS011;16424;50.956;5.320;2023-10-09T12:18:02;13.68;;;5.28;;
29452;SDS011;16424;50.956;5.320;2023-10-09T12:20:39;10.45;;;4.80;;
29452;SDS011;16424;50.956;5.320;2023-10-09T12:23:06;11.05;;;5.18;;
29452;SDS011;16424;50.956;5.320;2023-10-09T12:25:32;11.88;;;5.32;;
29452;SDS011;16424;50.956;5.320;2023-10-09T12:27:59;11.25;;;4.80;;
29452;SDS011;16424;50.956;5.320;2023-10-09T12:30:27;13.75;;;5.72;;
29452;SDS011;16424;50.956;5.320;2023-10-09T12:32:54;13.30;;;4.95;;
29452;SDS011;16424;50.956;5.320;2023-10-09T12:35:22;10.95;;;4.88;;
29452;SDS011;16424;50.956;5.320;2023-10-09T12:37:51;9.50;;;4.63;;
29452;SDS011;16424;50.956;5.320;2023-10-09T12:40:19;14.32;;;5.22;;
29452;SDS011;16424;50.956;5.320;2023-10-09T12:42:54;8.77;;;4.55;;
29452;SDS011;16424;50.956;5.320;2023-10-09T12:45:24;7.15;;;4.88;;
29452;SDS011;16424;50.956;5.320;2023-10-09T12:47:57;10.40;;;5.38;;
29452;SDS011;16424;50.956;5.320;2023-10-09T12:50:34;13.50;;;5.47;;
29452;SDS011;16424;50.956;5.320;2023-10-09T12:53:06;12.10;;;4.32;;
29452;SDS011;16424;50.956;5.320;2023-10-09T12:58:05;11.77;;;4.82;;
29452;SDS011;16424;50.956;5.320;2023-10-09T13:00:36;9.07;;;4.72;;
29452;SDS011;16424;50.956;5.320;2023-10-09T13:03:05;8.35;;;4.82;;
29452;SDS011;16424;50.956;5.320;2023-10-09T13:05:58;7.88;;;4.40;;
29452;SDS011;16424;50.956;5.320;2023-10-09T13:08:27;10.63;;;4.63;;
29452;SDS011;16424;50.956;5.320;2023-10-09T13:11:03;14.13;;;5.10;;
29452;SDS011;16424;50.956;5.320;2023-10-09T13:13:37;9.23;;;4.93;;
29452;SDS011;16424;50.956;5.320;2023-10-09T13:16:13;9.77;;;4.68;;
29452;SDS011;16424;50.956;5.320;2023-10-09T13:18:48;8.02;;;4.72;;
29452;SDS011;16424;50.956;5.320;2023-10-09T13:21:27;10.80;;;4.43;;
29452;SDS011;16424;50.956;5.320;2023-10-09T13:24:04;17.02;;;5.65;;
29452;SDS011;16424;50.956;5.320;2023-10-09T13:26:30;18.90;;;5.68;;
29452;SDS011;16424;50.956;5.320;2023-10-09T13:28:58;13.82;;;5.30;;
29452;SDS011;16424;50.956;5.320;2023-10-09T13:31:27;11.50;;;4.88;;
29452;SDS011;16424;50.956;5.320;2023-10-09T13:33:57;13.60;;;5.68;;
29452;SDS011;16424;50.956;5.320;2023-10-09T13:36:24;9.40;;;5.20;;
29452;SDS011;16424;50.956;5.320;2023-10-09T13:38:58;13.50;;;5.47;;
29452;SDS011;16424;50.956;5.320;2023-10-09T13:41:47;19.65;;;6.00;;
29452;SDS011;16424;50.956;5.320;2023-10-09T13:44:14;14.25;;;6.20;;
29452;SDS011;16424;50.956;5.320;2023-10-09T13:46:40;12.45;;;5.25;;
29452;SDS011;16424;50.956;5.320;2023-10-09T13:49:09;10.43;;;4.82;;
29452;SDS011;16424;50.956;5.320;2023-10-09T13:51:42;14.48;;;5.85;;
29452;SDS011;16424;50.956;5.320;2023-10-09T13:54:11;12.88;;;4.88;;
29452;SDS011;16424;50.956;5.320;2023-10-09T13:59:11;9.55;;;4.70;;
29452;SDS011;16424;50.956;5.320;2023-10-09T14:01:37;9.10;;;4.90;;
29452;SDS011;16424;50.956;5.320;2023-10-09T14:04:04;12.25;;;5.90;;
29452;SDS011;16424;50.956;5.320;2023-10-09T14:06:33;15.85;;;5.65;;
29452;SDS011;16424;50.956;5.320;2023-10-09T14:09:00;16.90;;;6.35;;
29452;SDS011;16424;50.956;5.320;2023-10-09T14:11:33;14.43;;;5.90;;
29452;SDS011;16424;50.956;5.320;2023-10-09T14:14:03;14.73;;;6.30;;
29452;SDS011;16424;50.956;5.320;2023-10-09T14:16:34;16.08;;;6.60;;
29452;SDS011;16424;50.956;5.320;2023-10-09T14:19:01;12.48;;;5.90;;
29452;SDS011;16424;50.956;5.320;2023-10-09T14:21:32;12.25;;;5.60;;
29452;SDS011;16424;50.956;5.320;2023-10-09T14:24:02;14.45;;;6.05;;
29452;SDS011;16424;50.956;5.320;2023-10-09T14:26:40;11.82;;;6.22;;
29452;SDS011;16424;50.956;5.320;2023-10-09T14:29:12;12.85;;;5.78;;
29452;SDS011;16424;50.956;5.320;2023-10-09T14:31:44;17.10;;;6.68;;
29452;SDS011;16424;50.956;5.320;2023-10-09T14:34:24;15.10;;;5.80;;
29452;SDS011;16424;50.956;5.320;2023-10-09T14:36:57;15.80;;;6.38;;
29452;SDS011;16424;50.956;5.320;2023-10-09T14:39:26;18.73;;;6.60;;
29452;SDS011;16424;50.956;5.320;2023-10-09T14:41:52;13.15;;;6.25;;
29452;SDS011;16424;50.956;5.320;2023-10-09T14:44:24;12.00;;;6.45;;
29452;SDS011;16424;50.956;5.320;2023-10-09T14:46:53;15.52;;;6.90;;
29452;SDS011;16424;50.956;5.320;2023-10-09T14:49:20;11.43;;;6.80;;
29452;SDS011;16424;50.956;5.320;2023-10-09T14:51:47;12.02;;;6.80;;
29452;SDS011;16424;50.956;5.320;2023-10-09T14:54:13;15.15;;;6.28;;
29452;SDS011;16424;50.956;5.320;2023-10-09T14:56:43;15.63;;;5.80;;
29452;SDS011;16424;50.956;5.320;2023-10-09T14:59:10;9.10;;;5.32;;
29452;SDS011;16424;50.956;5.320;2023-10-09T15:01:37;11.00;;;5.65;;
29452;SDS011;16424;50.956;5.320;2023-10-09T15:04:03;10.20;;;5.70;;
29452;SDS011;16424;50.956;5.320;2023-10-09T15:06:29;12.35;;;6.55;;
29452;SDS011;16424;50.956;5.320;2023-10-09T15:08:56;12.20;;;6.00;;
29452;SDS011;16424;50.956;5.320;2023-10-09T15:11:23;13.68;;;6.47;;
29452;SDS011;16424;50.956;5.320;2023-10-09T15:13:50;12.50;;;6.28;;
29452;SDS011;16424;50.956;5.320;2023-10-09T15:16:17;14.27;;;6.63;;
29452;SDS011;16424;50.956;5.320;2023-10-09T15:18:43;11.88;;;6.40;;
29452;SDS011;16424;50.956;5.320;2023-10-09T15:21:09;15.43;;;6.63;;
29452;SDS011;16424;50.956;5.320;2023-10-09T15:23:34;14.20;;;6.50;;
29452;SDS011;16424;50.956;5.320;2023-10-09T15:26:01;14.20;;;6.60;;
29452;SDS011;16424;50.956;5.320;2023-10-09T15:28:27;15.13;;;6.57;;
29452;SDS011;16424;50.956;5.320;2023-10-09T15:30:57;14.38;;;6.72;;
29452;SDS011;16424;50.956;5.320;2023-10-09T15:33:24;16.25;;;7.65;;
29452;SDS011;16424;50.956;5.320;2023-10-09T15:35:55;14.18;;;7.13;;
29452;SDS011;16424;50.956;5.320;2023-10-09T15:38:21;13.55;;;7.05;;
29452;SDS011;16424;50.956;5.320;2023-10-09T15:40:47;12.88;;;7.00;;
29452;SDS011;16424;50.956;5.320;2023-10-09T15:43:13;16.77;;;7.65;;
29452;SDS011;16424;50.956;5.320;2023-10-09T15:45:44;16.23;;;6.80;;
29452;SDS011;16424;50.956;5.320;2023-10-09T15:48:13;11.05;;;6.53;;
29452;SDS011;16424;50.956;5.320;2023-10-09T15:50:43;15.68;;;7.65;;
29452;SDS011;16424;50.956;5.320;2023-10-09T15:53:13;23.30;;;7.97;;
29452;SDS011;16424;50.956;5.320;2023-10-09T15:55:46;14.23;;;7.03;;
29452;SDS011;16424;50.956;5.320;2023-10-09T15:58:16;11.85;;;6.93;;